createdAt,value
2019-04-05T00:01:44.912Z,23.30
2019-04-05T00:04:15.231Z,24.67
2019-04-05T00:06:45.541Z,27.67
2019-04-05T00:09:15.881Z,23.47
2019-04-05T00:11:46.195Z,26.00
2019-04-05T00:14:16.614Z,23.47
2019-04-05T00:16:46.921Z,23.53
2019-04-05T00:19:19.306Z,22.70
2019-04-05T00:21:49.599Z,25.20
2019-04-05T00:24:19.918Z,23.90
2019-04-05T00:26:50.238Z,20.60
2019-04-05T00:29:20.546Z,25.50
2019-04-05T00:31:50.902Z,23.83
2019-04-05T00:34:21.202Z,20.77
2019-04-05T00:36:51.512Z,20.53
2019-04-05T00:39:21.813Z,22.97
2019-04-05T00:41:52.170Z,21.07
2019-04-05T00:44:22.667Z,21.37
2019-04-05T00:46:52.979Z,20.20
2019-04-05T00:49:23.373Z,22.97
2019-04-05T00:51:53.741Z,22.00
2019-04-05T00:54:24.045Z,21.07
2019-04-05T00:56:54.347Z,20.03
2019-04-05T00:59:24.718Z,22.07
2019-04-05T01:01:55.099Z,22.73
2019-04-05T01:04:25.455Z,25.60
2019-04-05T01:06:55.790Z,21.57
2019-04-05T01:09:26.114Z,24.67
2019-04-05T01:11:56.416Z,25.27
2019-04-05T01:14:27.702Z,23.23
2019-04-05T01:16:58.018Z,27.17
2019-04-05T01:19:31.572Z,28.53
2019-04-05T01:22:05.846Z,24.77
2019-04-05T01:24:36.380Z,25.87
2019-04-05T01:27:08.178Z,25.10
2019-04-05T01:29:38.645Z,24.20
2019-04-05T01:32:08.950Z,25.70
2019-04-05T01:34:39.305Z,26.70
2019-04-05T01:37:09.646Z,25.30
2019-04-05T01:39:40.034Z,30.43
2019-04-05T01:42:10.742Z,27.17
2019-04-05T01:44:41.749Z,26.33
2019-04-05T01:47:12.075Z,26.47
2019-04-05T01:49:42.421Z,23.60
2019-04-05T01:52:12.735Z,23.60
2019-04-05T01:54:43.419Z,28.30
2019-04-05T01:57:13.818Z,33.07
2019-04-05T01:59:44.294Z,27.53
2019-04-05T02:02:14.723Z,28.40
2019-04-05T02:04:45.091Z,32.00
2019-04-05T02:07:15.402Z,27.97
2019-04-05T02:09:45.722Z,25.67
2019-04-05T02:12:16.030Z,26.87
2019-04-05T02:14:46.398Z,28.13
2019-04-05T02:17:16.844Z,25.07
2019-04-05T02:19:47.240Z,26.13
2019-04-05T02:22:17.493Z,28.40
2019-04-05T02:24:47.818Z,24.40
2019-04-05T02:27:18.127Z,21.57
2019-04-05T02:29:48.433Z,19.83
2019-04-05T02:32:18.761Z,18.43
2019-04-05T02:34:49.155Z,19.17
2019-04-05T02:37:19.450Z,17.60
2019-04-05T02:39:50.470Z,16.00
2019-04-05T02:42:21.772Z,14.80
2019-04-05T02:44:53.909Z,15.67
2019-04-05T02:47:24.873Z,13.77
2019-04-05T02:49:57.375Z,12.57
2019-04-05T02:52:28.499Z,14.43
2019-04-05T02:55:00.032Z,15.07
2019-04-05T02:57:31.695Z,13.23
2019-04-05T03:00:03.062Z,14.37
2019-04-05T03:02:34.206Z,14.20
2019-04-05T03:05:04.976Z,14.17
2019-04-05T03:07:35.788Z,13.67
2019-04-05T03:10:06.446Z,12.90
2019-04-05T03:12:38.001Z,12.07
2019-04-05T03:15:08.768Z,14.57
2019-04-05T03:17:40.859Z,12.73
2019-04-05T03:20:11.347Z,12.20
2019-04-05T03:22:41.798Z,12.70
2019-04-05T03:25:12.363Z,13.53
2019-04-05T03:27:42.753Z,13.40
2019-04-05T03:30:13.088Z,14.23
2019-04-05T03:32:43.561Z,13.10
2019-04-05T03:35:13.811Z,14.80
2019-04-05T03:37:44.155Z,13.30
2019-04-05T03:40:14.632Z,15.73
2019-04-05T03:42:44.961Z,14.20
2019-04-05T03:45:15.587Z,14.20
2019-04-05T03:47:45.995Z,13.87
2019-04-05T03:50:16.441Z,14.47
2019-04-05T03:52:46.765Z,13.20
2019-04-05T03:55:17.675Z,11.73
2019-04-05T03:57:48.184Z,14.97
2019-04-05T04:00:18.515Z,13.23
2019-04-05T04:02:49.326Z,13.53
2019-04-05T04:05:20.014Z,14.03
2019-04-05T04:07:50.317Z,15.27
2019-04-05T04:10:21.187Z,13.03
2019-04-05T04:12:51.656Z,14.97
2019-04-05T04:15:22.137Z,14.53
2019-04-05T04:18:36.163Z,14.77
2019-04-05T04:21:17.695Z,16.07
2019-04-05T04:23:48.505Z,13.57
2019-04-05T04:26:20.159Z,17.40
2019-04-05T04:28:51.388Z,15.33
2019-04-05T04:31:22.434Z,13.67
2019-04-05T04:33:53.549Z,14.97
2019-04-05T04:36:25.608Z,14.43
2019-04-05T04:38:56.370Z,12.67
2019-04-05T04:41:27.392Z,13.37
2019-04-05T04:43:59.622Z,16.33
2019-04-05T04:46:31.189Z,14.63
2019-04-05T04:49:03.587Z,14.37
2019-04-05T04:51:35.489Z,15.83
2019-04-05T04:54:06.294Z,15.40
2019-04-05T04:56:37.592Z,15.20
2019-04-05T04:59:08.362Z,15.33
2019-04-05T05:01:39.871Z,14.23
2019-04-05T05:04:10.719Z,18.20
2019-04-05T05:07:11.890Z,18.27
2019-04-05T05:09:42.216Z,16.63
2019-04-05T05:12:12.797Z,18.87
2019-04-05T05:14:43.400Z,19.83
2019-04-05T05:17:13.982Z,17.97
2019-04-05T05:19:44.706Z,17.13
2019-04-05T05:22:15.171Z,15.57
2019-04-05T05:24:45.735Z,20.17
2019-04-05T05:27:16.074Z,19.03
2019-04-05T05:29:46.482Z,19.87
2019-04-05T05:32:17.115Z,21.50
2019-04-05T05:34:47.487Z,23.73
2019-04-05T05:37:18.325Z,22.33
2019-04-05T05:39:48.811Z,28.30
2019-04-05T05:42:19.246Z,25.10
2019-04-05T05:44:49.764Z,25.77
2019-04-05T05:47:20.328Z,21.90
2019-04-05T05:49:50.764Z,26.37
2019-04-05T05:52:21.454Z,20.13
2019-04-05T05:54:51.828Z,28.37
2019-04-05T05:57:22.280Z,24.43
2019-04-05T05:59:52.669Z,29.33
2019-04-05T06:02:23.226Z,31.23
2019-04-05T06:04:53.546Z,27.27
2019-04-05T06:07:23.888Z,31.13
2019-04-05T06:09:54.215Z,31.97
2019-04-05T06:12:24.662Z,32.00
2019-04-05T06:14:55.082Z,34.63
2019-04-05T06:17:25.378Z,33.63
2019-04-05T06:19:55.753Z,43.53
2019-04-05T06:22:26.164Z,38.83
2019-04-05T06:24:56.468Z,42.97
2019-04-05T06:27:26.803Z,50.07
2019-04-05T06:29:57.122Z,42.37
2019-04-05T06:32:27.698Z,126.07
2019-04-05T06:34:58.006Z,77.47
2019-04-05T06:37:28.340Z,139.67
2019-04-05T06:39:58.658Z,82.07
2019-04-05T06:42:28.989Z,50.40
2019-04-05T06:44:59.365Z,148.60
2019-04-05T06:47:29.693Z,54.17
2019-04-05T06:50:00.019Z,84.80
2019-04-05T06:52:30.346Z,182.57
2019-04-05T06:55:00.688Z,64.67
2019-04-05T06:57:31.120Z,125.87
2019-04-05T07:00:01.423Z,58.87
2019-04-05T07:02:31.776Z,51.80
2019-04-05T07:05:02.136Z,62.93
2019-04-05T07:07:32.595Z,148.90
2019-04-05T07:10:02.962Z,61.40
2019-04-05T07:12:33.360Z,115.73
2019-04-05T07:15:04.020Z,67.83
2019-04-05T07:17:34.570Z,72.43
2019-04-05T07:20:05.209Z,115.77
2019-04-05T07:22:39.138Z,60.70
2019-04-05T07:25:09.260Z,82.60
2019-04-05T07:27:39.725Z,68.13
2019-04-05T07:30:10.816Z,59.27
2019-04-05T07:32:42.936Z,65.20
2019-04-05T07:35:13.272Z,86.17
2019-04-05T07:37:43.668Z,64.27
2019-04-05T07:40:13.986Z,65.07
2019-04-05T07:42:44.344Z,58.17
2019-04-05T07:45:17.337Z,49.47
2019-04-05T07:47:47.705Z,61.30
2019-04-05T07:50:18.134Z,49.53
2019-04-05T07:52:48.509Z,54.03
2019-04-05T07:55:20.306Z,49.07
2019-04-05T07:57:52.014Z,46.47
2019-04-05T08:00:42.439Z,43.40
2019-04-05T08:03:12.827Z,45.37
2019-04-05T08:09:02.184Z,48.73
2019-04-05T08:11:32.446Z,48.47
2019-04-05T08:14:02.976Z,49.50
2019-04-05T08:16:33.511Z,45.73
2019-04-05T08:19:03.854Z,43.23
2019-04-05T08:21:34.222Z,40.50
2019-04-05T08:24:04.797Z,41.23
2019-04-05T08:26:37.539Z,42.00
2019-04-05T08:29:09.829Z,44.30
2019-04-05T08:31:43.093Z,38.00
2019-04-05T08:34:13.474Z,43.17
2019-04-05T08:36:43.802Z,42.57
2019-04-05T08:39:14.224Z,42.97
2019-04-05T08:41:45.745Z,38.67
2019-04-05T08:44:16.259Z,43.43
2019-04-05T08:46:46.689Z,46.70
2019-04-05T08:49:17.019Z,45.83
2019-04-05T08:51:48.488Z,44.57
2019-04-05T08:54:31.570Z,43.47
2019-04-05T08:56:50.861Z,45.67
2019-04-05T08:59:21.322Z,39.73
2019-04-05T09:01:51.957Z,43.07
2019-04-05T09:04:22.468Z,41.90
2019-04-05T09:06:52.802Z,45.47
2019-04-05T09:09:23.180Z,46.03
2019-04-05T09:11:53.498Z,40.17
2019-04-05T09:14:23.846Z,39.03
2019-04-05T09:16:56.849Z,43.33
2019-04-05T09:19:27.278Z,45.17
2019-04-05T09:21:57.644Z,44.40
2019-04-05T09:24:27.969Z,48.23
2019-04-05T09:27:00.181Z,47.57
2019-04-05T09:29:30.446Z,40.03
2019-04-05T09:32:00.766Z,39.03
2019-04-05T09:34:31.074Z,42.53
2019-04-05T09:37:01.511Z,41.80
2019-04-05T09:39:33.032Z,43.10
2019-04-05T09:42:03.366Z,44.37
2019-04-05T09:44:33.746Z,43.47
2019-04-05T09:47:04.354Z,40.70
2019-04-05T09:49:36.851Z,41.33
2019-04-05T09:52:07.401Z,38.07
2019-04-05T09:54:38.034Z,38.20
2019-04-05T09:57:08.395Z,40.90
2019-04-05T09:59:39.456Z,37.93
2019-04-05T10:02:09.842Z,35.57
2019-04-05T10:04:40.208Z,35.97
2019-04-05T10:07:10.532Z,37.20
2019-04-05T10:09:40.902Z,34.60
2019-04-05T10:12:11.204Z,35.67
2019-04-05T10:14:41.674Z,34.47
2019-04-05T10:17:13.188Z,35.33
2019-04-05T10:19:49.657Z,37.50
2019-04-05T10:22:15.441Z,30.30
2019-04-05T10:24:45.875Z,32.13
2019-04-05T10:27:16.274Z,35.20
2019-04-05T10:29:49.378Z,37.03
2019-04-05T10:32:18.589Z,33.17
2019-04-05T10:34:48.988Z,34.37
2019-04-05T10:37:19.303Z,30.70
2019-04-05T10:39:49.842Z,34.67
2019-04-05T10:42:31.344Z,33.17
2019-04-05T10:45:01.994Z,31.37
2019-04-05T10:47:32.318Z,35.57
2019-04-05T10:50:03.785Z,36.10
2019-04-05T10:52:34.172Z,29.73
2019-04-05T10:55:04.793Z,34.27
2019-04-05T10:57:35.513Z,31.87
2019-04-05T11:00:09.149Z,38.87
2019-04-05T11:02:39.876Z,30.60
2019-04-05T11:05:10.683Z,36.33
2019-04-05T11:07:41.153Z,32.43
2019-04-05T11:10:12.265Z,39.07
2019-04-05T11:12:42.586Z,35.33
2019-04-05T11:15:15.209Z,37.03
2019-04-05T11:17:45.805Z,31.03
2019-04-05T11:20:21.561Z,34.33
2019-04-05T11:22:50.268Z,37.23
2019-04-05T11:25:22.401Z,34.57
2019-04-05T11:27:52.821Z,40.37
2019-04-05T11:30:40.118Z,39.80
2019-04-05T11:33:10.753Z,35.43
2019-04-05T11:35:41.485Z,38.87
2019-04-05T11:38:13.604Z,43.40
2019-04-05T11:40:45.210Z,40.50
2019-04-05T11:43:16.803Z,37.07
2019-04-05T11:45:48.605Z,37.87
2019-04-05T11:48:19.049Z,40.80
2019-04-05T11:50:49.550Z,36.83
2019-04-05T11:53:22.008Z,39.63
2019-04-05T11:55:51.869Z,40.97
2019-04-05T11:58:22.932Z,39.13
2019-04-05T12:01:02.027Z,37.50
2019-04-05T12:03:32.578Z,40.60
2019-04-05T12:06:02.895Z,38.60
2019-04-05T12:08:33.228Z,34.30
2019-04-05T12:11:03.638Z,34.97
2019-04-05T12:13:34.764Z,38.33
2019-04-05T12:16:06.137Z,34.80
2019-04-05T12:18:37.184Z,40.37
2019-04-05T12:21:08.126Z,38.23
2019-04-05T12:23:39.049Z,38.20
2019-04-05T12:26:09.438Z,33.60
2019-04-05T12:28:40.344Z,38.07
2019-04-05T12:31:12.530Z,38.00
2019-04-05T12:33:46.517Z,39.50
2019-04-05T12:36:15.614Z,39.00
2019-04-05T12:38:45.938Z,43.33
2019-04-05T12:41:18.274Z,41.97
2019-04-05T12:43:50.819Z,41.73
2019-04-05T12:46:20.294Z,41.47
2019-04-05T12:48:50.605Z,37.53
2019-04-05T12:51:21.924Z,38.37
2019-04-05T12:53:52.271Z,44.53
2019-04-05T12:56:24.377Z,38.90
2019-04-05T12:58:56.019Z,47.47
2019-04-05T13:01:26.784Z,43.77
2019-04-05T13:03:58.672Z,38.67
2019-04-05T13:06:29.195Z,42.23
2019-04-05T13:08:59.633Z,37.93
2019-04-05T13:11:30.110Z,42.10
2019-04-05T13:14:00.645Z,44.80
2019-04-05T13:16:31.018Z,41.07
2019-04-05T13:19:01.633Z,42.73
2019-04-05T13:21:33.116Z,41.33
2019-04-05T13:24:04.372Z,36.10
2019-04-05T13:26:36.947Z,40.17
2019-04-05T13:29:07.582Z,48.47
2019-04-05T13:31:38.150Z,35.23
2019-04-05T13:34:08.438Z,38.23
2019-04-05T13:36:38.884Z,39.80
2019-04-05T13:39:09.963Z,36.70
2019-04-05T13:41:40.455Z,41.80
2019-04-05T13:44:11.027Z,39.13
2019-04-05T13:46:42.855Z,40.63
2019-04-05T13:50:30.615Z,41.70
2019-04-05T13:53:01.346Z,40.77
2019-04-05T13:55:33.048Z,38.10
2019-04-05T13:58:03.366Z,41.17
2019-04-05T14:00:33.995Z,40.03
2019-04-05T14:03:04.333Z,45.07
2019-04-05T14:05:34.630Z,47.37
2019-04-05T14:08:10.400Z,39.37
2019-04-05T14:10:39.663Z,43.13
2019-04-05T14:13:09.991Z,47.47
2019-04-05T14:15:42.438Z,41.40
2019-04-05T14:18:15.272Z,41.87
2019-04-05T14:20:49.641Z,46.33
2019-04-05T14:23:23.328Z,45.73
2019-04-05T14:25:53.682Z,46.60
2019-04-05T14:28:23.951Z,39.77
2019-04-05T14:30:56.256Z,45.13
2019-04-05T14:33:25.918Z,45.20
2019-04-05T14:35:56.223Z,41.77
2019-04-05T14:38:26.598Z,45.97
2019-04-05T14:40:56.903Z,49.43
2019-04-05T14:43:27.213Z,48.53
2019-04-05T14:45:58.680Z,44.20
2019-04-05T14:48:31.774Z,46.30
2019-04-05T14:51:02.706Z,51.43
2019-04-05T14:53:32.823Z,47.00
2019-04-05T14:56:05.461Z,50.27
2019-04-05T14:58:37.000Z,42.57
2019-04-05T15:01:12.326Z,42.17
2019-04-05T15:03:44.084Z,50.80
2019-04-05T15:06:15.726Z,41.33
2019-04-05T15:08:47.918Z,43.73
2019-04-05T15:11:18.062Z,49.00
2019-04-05T15:13:48.963Z,46.90
2019-04-05T15:16:23.404Z,49.13
2019-04-05T15:18:54.900Z,58.47
2019-04-05T15:21:28.238Z,61.93
2019-04-05T15:23:59.955Z,55.90
2019-04-05T15:26:33.665Z,57.50
2019-04-05T15:29:05.936Z,52.00
2019-04-05T15:31:37.893Z,56.30
2019-04-05T15:34:09.751Z,61.70
2019-04-05T15:36:40.917Z,61.13
2019-04-05T15:39:13.350Z,58.60
2019-04-05T15:41:44.696Z,62.83
2019-04-05T15:44:18.398Z,55.50
2019-04-05T15:46:49.971Z,58.93
2019-04-05T15:49:22.221Z,62.53
2019-04-05T15:51:55.086Z,61.27
2019-04-05T15:54:28.993Z,57.30
2019-04-05T15:57:03.382Z,63.90
2019-04-05T15:59:34.440Z,63.27
2019-04-05T16:02:06.678Z,64.87
2019-04-05T16:04:39.816Z,61.17
2019-04-05T16:07:13.222Z,65.13
2019-04-05T16:11:48.710Z,61.93
2019-04-05T16:14:20.445Z,60.97
2019-04-05T16:16:53.718Z,70.53
2019-04-05T16:19:25.700Z,63.47
2019-04-05T16:21:57.795Z,70.90
2019-04-05T16:24:29.782Z,70.50
2019-04-05T16:27:01.719Z,77.33
2019-04-05T16:29:33.919Z,82.00
2019-04-05T16:32:05.207Z,68.97
2019-04-05T16:34:37.088Z,80.70
2019-04-05T16:37:10.097Z,75.53
2019-04-05T16:39:41.789Z,79.73
2019-04-05T16:42:16.679Z,113.50
2019-04-05T16:44:48.715Z,66.57
2019-04-05T16:47:20.680Z,71.57
2019-04-05T16:49:53.470Z,73.80
2019-04-05T16:52:25.431Z,74.30
2019-04-05T16:54:57.260Z,65.60
2019-04-05T16:57:28.902Z,107.20
2019-04-05T17:00:00.153Z,155.73
2019-04-05T17:02:31.895Z,167.47
2019-04-05T17:05:02.307Z,205.77
2019-04-05T17:07:32.742Z,106.20
2019-04-05T17:10:03.053Z,112.00
2019-04-05T17:12:33.425Z,102.50
2019-04-05T17:15:04.135Z,62.40
2019-04-05T17:17:37.013Z,159.83
2019-04-05T17:20:08.178Z,92.60
2019-04-05T17:22:38.967Z,95.83
2019-04-05T17:25:10.418Z,131.47
2019-04-05T17:27:40.829Z,228.23
2019-04-05T17:30:11.369Z,122.97
2019-04-05T17:32:41.924Z,201.57
2019-04-05T17:35:12.406Z,141.20
2019-04-05T17:37:42.716Z,88.83
2019-04-05T17:40:13.291Z,264.50
2019-04-05T17:42:43.669Z,367.70
2019-04-05T17:45:14.006Z,100.43
2019-04-05T17:47:44.319Z,123.27
2019-04-05T17:53:40.023Z,461.67
2019-04-05T17:57:03.137Z,300.33
2019-04-05T17:59:33.542Z,245.63
2019-04-05T18:02:04.180Z,134.40
2019-04-05T18:04:34.595Z,412.87
2019-04-05T18:07:04.965Z,70.20
2019-04-05T18:09:35.285Z,261.83
2019-04-05T18:12:05.903Z,548.10
2019-04-05T18:14:36.394Z,132.60
2019-04-05T18:17:07.777Z,610.20
2019-04-05T18:19:38.648Z,194.40
2019-04-05T18:22:08.898Z,368.73
2019-04-05T18:24:39.266Z,285.27
2019-04-05T18:27:09.639Z,562.93
2019-04-05T18:29:42.005Z,785.57
2019-04-05T18:32:12.386Z,205.37
2019-04-05T18:34:42.769Z,141.67
2019-04-05T18:37:13.145Z,542.13
2019-04-05T18:39:43.451Z,697.87
2019-04-05T18:42:13.767Z,405.17
2019-04-05T18:44:44.239Z,183.73
2019-04-05T18:47:14.568Z,330.77
2019-04-05T18:49:44.902Z,561.10
2019-04-05T18:52:15.246Z,147.03
2019-04-05T18:54:45.637Z,147.60
2019-04-05T18:57:17.081Z,149.90
2019-04-05T18:59:47.411Z,260.03
2019-04-05T19:02:17.727Z,296.27
2019-04-05T19:04:48.083Z,205.87
2019-04-05T19:07:18.481Z,204.97
2019-04-05T19:09:48.798Z,177.00
2019-04-05T19:12:19.162Z,104.43
2019-04-05T19:14:49.483Z,202.83
2019-04-05T19:17:24.092Z,200.77
2019-04-05T19:19:52.007Z,107.87
2019-04-05T19:22:22.393Z,319.10
2019-04-05T19:24:52.718Z,116.63
2019-04-05T19:27:24.254Z,181.70
2019-04-05T19:29:54.592Z,225.03
2019-04-05T19:50:13.370Z,323.17
2019-04-05T19:52:43.764Z,449.80
2019-04-05T19:55:15.405Z,192.13
2019-04-05T19:57:45.778Z,373.23
2019-04-05T20:00:16.173Z,268.03
2019-04-05T20:02:46.445Z,118.57
2019-04-05T20:05:16.797Z,107.73
2019-04-05T20:07:47.312Z,273.20
2019-04-05T20:10:22.414Z,121.00
2019-04-05T20:12:56.979Z,75.70
2019-04-05T20:15:27.299Z,281.57
2019-04-05T20:17:57.665Z,190.23
2019-04-05T20:20:28.009Z,182.83
2019-04-05T20:22:59.475Z,116.40
2019-04-05T20:25:29.742Z,140.80
2019-04-05T20:28:00.097Z,500.20
2019-04-05T20:30:31.553Z,134.40
2019-04-05T20:33:01.953Z,196.43
2019-04-05T20:35:32.355Z,102.10
2019-04-05T20:38:02.734Z,220.63
2019-04-05T20:40:33.119Z,96.37
2019-04-05T20:43:03.721Z,141.17
2019-04-05T20:45:34.313Z,175.73
2019-04-05T20:48:04.980Z,145.63
2019-04-05T20:50:35.360Z,372.03
2019-04-05T20:53:05.750Z,118.87
2019-04-05T20:55:37.392Z,269.40
2019-04-05T20:58:08.003Z,146.37
2019-04-05T21:00:38.870Z,357.77
2019-04-05T21:03:09.204Z,130.97
2019-04-05T21:05:39.856Z,217.33
2019-04-05T21:08:10.289Z,315.23
2019-04-05T21:10:40.900Z,147.10
2019-04-05T21:13:11.251Z,251.83
2019-04-05T21:15:41.577Z,356.43
2019-04-05T21:18:11.916Z,132.53
2019-04-05T21:20:42.271Z,107.27
2019-04-05T21:23:12.703Z,200.13
2019-04-05T21:25:43.066Z,270.90
2019-04-05T21:28:13.413Z,193.93
2019-04-05T21:30:43.762Z,86.53
2019-04-05T21:33:14.130Z,122.93
2019-04-05T21:35:46.030Z,101.30
2019-04-05T21:38:16.809Z,382.37
2019-04-05T21:40:48.710Z,184.40
2019-04-05T21:43:19.997Z,200.13
2019-04-05T21:45:50.303Z,152.87
2019-04-05T21:48:54.193Z,436.83
2019-04-05T21:51:24.722Z,232.43
2019-04-05T21:53:55.227Z,338.57
2019-04-05T21:56:25.536Z,184.50
2019-04-05T21:58:55.953Z,221.93
2019-04-05T22:01:27.662Z,294.30
2019-04-05T22:03:58.021Z,96.33
2019-04-05T22:06:28.343Z,522.73
2019-04-05T22:08:58.649Z,543.97
2019-04-05T22:11:29.071Z,282.90
2019-04-05T22:13:59.510Z,131.07
2019-04-05T22:16:29.839Z,371.47
2019-04-05T22:19:00.225Z,354.90
2019-04-05T22:21:30.525Z,399.53
2019-04-05T22:24:00.842Z,189.53
2019-04-05T22:26:32.470Z,353.23
2019-04-05T22:29:03.052Z,122.53
2019-04-05T22:31:33.425Z,293.67
2019-04-05T22:34:03.826Z,161.43
2019-04-05T22:36:34.117Z,100.87
2019-04-05T22:39:07.213Z,126.77
2019-04-05T22:41:37.676Z,113.03
2019-04-05T22:44:09.217Z,121.40
2019-04-05T22:46:40.041Z,270.77
2019-04-05T22:49:10.484Z,162.00
2019-04-05T22:51:41.261Z,111.90
2019-04-05T22:54:11.637Z,90.20
2019-04-05T22:56:41.973Z,108.43
2019-04-05T22:59:12.843Z,269.67
2019-04-05T23:01:43.394Z,292.23
2019-04-05T23:04:13.847Z,136.33
2019-04-05T23:06:44.177Z,740.90
2019-04-05T23:09:14.484Z,780.63
2019-04-05T23:11:44.866Z,770.93
2019-04-05T23:14:15.173Z,725.87
2019-04-05T23:16:45.514Z,835.67
2019-04-05T23:19:15.838Z,640.73
2019-04-05T23:21:46.292Z,269.17
2019-04-05T23:24:16.605Z,178.93
2019-04-05T23:26:46.917Z,684.60
2019-04-05T23:29:17.372Z,836.87
2019-04-05T23:31:47.756Z,596.53
2019-04-05T23:34:18.124Z,994.00
2019-04-05T23:36:48.509Z,1002.40
2019-04-05T23:39:18.969Z,461.57
2019-04-05T23:41:49.335Z,501.63
2019-04-05T23:44:19.658Z,358.43
2019-04-05T23:46:51.585Z,740.37
2019-04-05T23:49:21.994Z,548.83
2019-04-05T23:51:52.414Z,575.97
2019-04-05T23:54:22.738Z,411.23
2019-04-05T23:56:53.116Z,222.47
2019-04-05T23:59:23.506Z,188.97
